createdAt,value
2022-10-02T00:01:47.358Z,100518.06
2022-10-02T00:04:22.321Z,100510.91
2022-10-02T00:06:51.095Z,100534.41
2022-10-02T00:09:33.751Z,100533.47
2022-10-02T00:12:02.009Z,100530.88
2022-10-02T00:14:33.739Z,100549.03
2022-10-02T00:17:01.375Z,100556.09
2022-10-02T00:19:28.146Z,100552.25
2022-10-02T00:22:32.177Z,100553.03
2022-10-02T00:25:07.097Z,100548.88
2022-10-02T00:28:01.113Z,100556.63
2022-10-02T00:30:33.760Z,100548.94
2022-10-02T00:33:17.955Z,100569.75
2022-10-02T00:36:12.006Z,100562.56
2022-10-02T00:39:12.295Z,100564.41
2022-10-02T00:42:10.065Z,100567.63
2022-10-02T00:44:48.694Z,100575.28
2022-10-02T00:47:39.259Z,100576.06
2022-10-02T00:50:08.374Z,100574.84
2022-10-02T00:52:53.517Z,100574.91
2022-10-02T00:55:30.270Z,100583.44
2022-10-02T00:57:56.631Z,100573.81
2022-10-02T01:00:23.383Z,100574.34
2022-10-02T01:03:10.348Z,100566.28
2022-10-02T01:05:37.782Z,100564.56
2022-10-02T01:08:05.249Z,100568.91
2022-10-02T01:10:32.236Z,100555.88
2022-10-02T01:12:59.205Z,100567.63
2022-10-02T01:15:44.433Z,100565.88
2022-10-02T01:18:13.899Z,100554.16
2022-10-02T01:20:47.679Z,100559.47
2022-10-02T01:23:50.618Z,100580.00
2022-10-02T01:26:18.032Z,100571.59
2022-10-02T01:28:44.556Z,100568.78
2022-10-02T01:31:14.612Z,100568.69
2022-10-02T01:33:43.389Z,100581.75
2022-10-02T01:36:11.899Z,100578.13
2022-10-02T01:38:40.840Z,100584.13
2022-10-02T01:41:11.407Z,100580.66
2022-10-02T01:43:41.803Z,100572.81
2022-10-02T01:46:32.839Z,100569.09
2022-10-02T01:49:21.253Z,100565.72
2022-10-02T01:51:53.686Z,100578.13
2022-10-02T01:54:29.211Z,100584.28
2022-10-02T01:57:10.467Z,100586.91
2022-10-02T01:59:50.668Z,100586.66
2022-10-02T02:02:41.414Z,100577.03
2022-10-02T02:05:16.248Z,100571.72
2022-10-02T02:08:06.248Z,100573.66
2022-10-02T02:11:12.029Z,100571.22
2022-10-02T02:13:45.620Z,100568.69
2022-10-02T02:16:31.803Z,100576.53
2022-10-02T02:19:07.461Z,100581.31
2022-10-02T02:21:40.166Z,100577.00
2022-10-02T02:24:14.675Z,100569.00
2022-10-02T02:26:45.253Z,100574.22
2022-10-02T02:29:15.225Z,100562.06
2022-10-02T02:31:49.138Z,100562.25
2022-10-02T02:34:22.102Z,100580.63
2022-10-02T02:36:55.554Z,100574.47
2022-10-02T02:39:39.368Z,100580.88
2022-10-02T02:42:09.769Z,100579.78
2022-10-02T02:44:53.198Z,100589.41
2022-10-02T02:47:26.440Z,100592.94
2022-10-02T02:49:55.537Z,100585.94
2022-10-02T02:52:28.342Z,100592.84
2022-10-02T02:55:28.937Z,100583.84
2022-10-02T02:58:16.376Z,100579.63
2022-10-02T03:00:42.906Z,100586.63
2022-10-02T03:03:09.355Z,100585.69
2022-10-02T03:05:42.262Z,100588.97
2022-10-02T03:08:18.490Z,100589.91
2022-10-02T03:10:55.347Z,100591.69
2022-10-02T03:13:45.404Z,100584.69
2022-10-02T03:16:20.943Z,100582.06
2022-10-02T03:19:07.579Z,100579.44
2022-10-02T03:22:03.102Z,100578.69
2022-10-02T03:24:44.847Z,100578.53
2022-10-02T03:27:35.832Z,100573.66
2022-10-02T03:30:08.298Z,100574.34
2022-10-02T03:32:36.442Z,100577.13
2022-10-02T03:35:06.040Z,100580.56
2022-10-02T03:37:33.011Z,100570.13
2022-10-02T03:40:01.435Z,100574.41
2022-10-02T03:42:31.658Z,100588.25
2022-10-02T03:44:58.090Z,100593.50
2022-10-02T03:47:24.556Z,100588.41
2022-10-02T03:49:51.017Z,100594.66
2022-10-02T03:52:21.099Z,100594.75
2022-10-02T03:54:51.010Z,100597.38
2022-10-02T03:57:23.384Z,100599.72
2022-10-02T04:00:09.216Z,100597.03
2022-10-02T04:02:52.398Z,100595.50
2022-10-02T04:05:29.012Z,100590.69
2022-10-02T04:08:00.052Z,100595.31
2022-10-02T04:10:39.329Z,100599.00
2022-10-02T04:13:32.126Z,100602.78
2022-10-02T04:16:03.567Z,100596.41
2022-10-02T04:18:37.743Z,100600.78
2022-10-02T04:21:15.331Z,100594.41
2022-10-02T04:23:52.687Z,100589.25
2022-10-02T04:26:29.555Z,100592.97
2022-10-02T04:29:05.206Z,100595.09
2022-10-02T04:31:31.707Z,100591.56
2022-10-02T04:34:03.068Z,100598.66
2022-10-02T04:36:39.975Z,100616.72
2022-10-02T04:39:59.595Z,100596.50
2022-10-02T04:43:01.133Z,100590.72
2022-10-02T04:45:45.652Z,100599.56
2022-10-02T04:48:47.644Z,100596.44
2022-10-02T04:51:35.095Z,100603.59
2022-10-02T04:54:35.730Z,100591.59
2022-10-02T04:57:39.789Z,100592.50
2022-10-02T05:00:12.834Z,100594.19
2022-10-02T05:02:39.283Z,100590.66
2022-10-02T05:05:11.748Z,100590.06
2022-10-02T05:07:47.303Z,100594.41
2022-10-02T05:10:52.617Z,100600.72
2022-10-02T05:13:53.713Z,100594.63
2022-10-02T05:16:45.195Z,100602.63
2022-10-02T05:19:49.678Z,100612.09
2022-10-02T05:22:22.038Z,100612.84
2022-10-02T05:25:12.592Z,100610.03
2022-10-02T05:28:06.370Z,100606.63
2022-10-02T05:30:46.934Z,100612.00
2022-10-02T05:33:32.197Z,100612.09
2022-10-02T05:36:16.704Z,100615.69
2022-10-02T05:38:43.015Z,100605.09
2022-10-02T05:41:25.477Z,100613.63
2022-10-02T05:44:04.342Z,100616.09
2022-10-02T05:46:39.023Z,100609.59
2022-10-02T05:49:20.430Z,100607.97
2022-10-02T05:51:59.292Z,100593.25
2022-10-02T05:55:22.105Z,100593.31
2022-10-02T05:57:57.368Z,100587.66
2022-10-02T06:00:55.102Z,100592.22
2022-10-02T06:03:43.893Z,100573.88
2022-10-02T06:06:14.835Z,100570.66
2022-10-02T06:08:49.727Z,100579.56
2022-10-02T06:11:21.349Z,100583.84
2022-10-02T06:13:54.252Z,100594.06
2022-10-02T06:16:23.368Z,100596.06
2022-10-02T06:18:56.204Z,100595.47
2022-10-02T06:21:32.800Z,100586.41
2022-10-02T06:24:07.390Z,100579.56
2022-10-02T06:26:57.422Z,100578.63
2022-10-02T06:29:40.171Z,100596.06
2022-10-02T06:32:40.430Z,100580.84
2022-10-02T06:35:12.450Z,100584.94
2022-10-02T06:38:19.663Z,100564.81
2022-10-02T06:40:50.731Z,100577.88
2022-10-02T06:43:19.977Z,100588.50
2022-10-02T06:46:17.885Z,100580.47
2022-10-02T06:48:58.588Z,100576.19
2022-10-02T06:51:38.093Z,100591.94
2022-10-02T06:54:29.393Z,100581.69
2022-10-02T06:57:17.088Z,100570.81
2022-10-02T07:00:11.948Z,100561.97
2022-10-02T07:02:56.565Z,100556.91
2022-10-02T07:05:50.576Z,100555.75
2022-10-02T07:08:42.000Z,100563.44
2022-10-02T07:11:28.118Z,100564.16
2022-10-02T07:14:22.229Z,100555.22
2022-10-02T07:17:05.179Z,100549.16
2022-10-02T07:19:53.428Z,100544.88
2022-10-02T07:22:51.915Z,100545.63
2022-10-02T07:25:39.912Z,100550.69
2022-10-02T07:28:17.089Z,100544.53
2022-10-02T07:31:21.516Z,100533.00
2022-10-02T07:33:57.189Z,100540.94
2022-10-02T07:36:39.101Z,100535.63
2022-10-02T07:39:36.610Z,100526.25
2022-10-02T07:42:08.786Z,100526.91
2022-10-02T07:45:29.441Z,100526.09
2022-10-02T07:48:15.641Z,100524.19
2022-10-02T07:51:35.150Z,100518.81
2022-10-02T07:54:28.794Z,100522.34
2022-10-02T07:57:05.096Z,100529.56
2022-10-02T07:59:36.898Z,100538.41
2022-10-02T08:02:14.111Z,100548.47
2022-10-02T08:04:41.289Z,100539.72
2022-10-02T08:07:07.758Z,100549.47
2022-10-02T08:09:45.752Z,100545.66
2022-10-02T08:12:21.212Z,100546.53
2022-10-02T08:14:52.571Z,100538.03
2022-10-02T08:17:30.360Z,100542.31
2022-10-02T08:20:29.494Z,100537.19
2022-10-02T08:23:13.059Z,100534.66
2022-10-02T08:25:46.226Z,100551.25
2022-10-02T08:28:24.097Z,100553.63
2022-10-02T08:30:50.868Z,100563.69
2022-10-02T08:33:23.572Z,100561.00
2022-10-02T08:36:28.607Z,100574.97
2022-10-02T08:39:09.890Z,100546.97
2022-10-02T08:42:23.315Z,100554.09
2022-10-02T08:45:17.561Z,100560.44
2022-10-02T08:48:11.185Z,100562.53
2022-10-02T08:51:09.163Z,100567.53
2022-10-02T08:53:51.575Z,100573.75
2022-10-02T08:56:30.055Z,100569.22
2022-10-02T08:58:59.474Z,100558.72
2022-10-02T09:01:33.608Z,100557.84
2022-10-02T09:04:10.571Z,100550.25
2022-10-02T09:06:42.980Z,100543.03
2022-10-02T09:09:24.675Z,100554.00
2022-10-02T09:12:03.252Z,100546.88
2022-10-02T09:15:13.902Z,100532.72
2022-10-02T09:17:47.051Z,100541.25
2022-10-02T09:20:31.528Z,100534.25
2022-10-02T09:22:58.900Z,100531.47
2022-10-02T09:26:03.659Z,100531.09
2022-10-02T09:28:48.413Z,100542.31
2022-10-02T09:31:45.987Z,100539.53
2022-10-02T09:34:39.600Z,100522.41
2022-10-02T09:37:26.322Z,100524.09
2022-10-02T09:40:29.410Z,100531.59
2022-10-02T09:43:05.713Z,100547.19
2022-10-02T09:46:00.046Z,100560.03
2022-10-02T09:48:35.503Z,100560.34
2022-10-02T09:51:16.271Z,100556.81
2022-10-02T09:54:21.392Z,100547.38
2022-10-02T09:56:47.682Z,100537.75
2022-10-02T09:59:40.541Z,100554.19
2022-10-02T10:02:23.328Z,100550.75
2022-10-02T10:05:08.879Z,100558.66
2022-10-02T10:07:35.329Z,100552.28
2022-10-02T10:10:31.012Z,100541.13
2022-10-02T10:13:09.611Z,100545.94
2022-10-02T10:15:40.540Z,100547.84
2022-10-02T10:18:47.998Z,100565.16
2022-10-02T10:21:20.234Z,100564.59
2022-10-02T10:23:51.129Z,100562.75
2022-10-02T10:27:08.240Z,100560.94
2022-10-02T10:30:03.909Z,100558.22
2022-10-02T10:32:52.085Z,100571.22
2022-10-02T10:35:24.833Z,100562.63
2022-10-02T10:38:12.670Z,100554.69
2022-10-02T10:40:54.923Z,100556.03
2022-10-02T10:43:51.416Z,100574.19
2022-10-02T10:46:42.621Z,100584.50
2022-10-02T10:49:30.361Z,100577.81
2022-10-02T10:52:21.627Z,100582.41
2022-10-02T10:55:04.856Z,100567.56
2022-10-02T10:57:42.641Z,100556.63
2022-10-02T11:00:19.067Z,100555.63
2022-10-02T11:03:07.090Z,100563.03
2022-10-02T11:06:13.593Z,100565.47
2022-10-02T11:08:55.434Z,100561.53
2022-10-02T11:11:28.044Z,100557.16
2022-10-02T11:14:15.456Z,100549.22
2022-10-02T11:17:22.433Z,100558.25
2022-10-02T11:20:07.130Z,100549.22
2022-10-02T11:22:54.773Z,100537.50
2022-10-02T11:25:30.291Z,100544.16
2022-10-02T11:28:23.166Z,100550.59
2022-10-02T11:31:02.845Z,100539.69
2022-10-02T11:33:38.254Z,100534.81
2022-10-02T11:36:20.125Z,100535.22
2022-10-02T11:39:13.944Z,100535.66
2022-10-02T11:41:49.597Z,100544.25
2022-10-02T11:44:57.346Z,100544.00
2022-10-02T11:48:09.067Z,100530.59
2022-10-02T11:50:35.468Z,100546.97
2022-10-02T11:53:11.220Z,100536.59
2022-10-02T11:56:14.369Z,100547.81
2022-10-02T11:59:07.122Z,100544.34
2022-10-02T12:01:45.677Z,100550.16
2022-10-02T12:04:40.773Z,100557.94
2022-10-02T12:07:19.689Z,100559.59
2022-10-02T12:10:19.089Z,100558.59
2022-10-02T12:13:04.476Z,100567.38
2022-10-02T12:15:59.783Z,100562.22
2022-10-02T12:18:54.824Z,100571.69
2022-10-02T12:22:03.772Z,100566.44
2022-10-02T12:25:10.323Z,100564.75
2022-10-02T12:27:48.787Z,100578.28
2022-10-02T12:30:23.387Z,100582.41
2022-10-02T12:33:27.281Z,100583.94
2022-10-02T12:36:08.504Z,100580.38
2022-10-02T12:39:12.056Z,100571.63
2022-10-02T12:41:57.192Z,100567.28
2022-10-02T12:44:44.869Z,100573.38
2022-10-02T12:47:42.362Z,100566.31
2022-10-02T12:50:39.696Z,100568.84
2022-10-02T12:53:16.252Z,100568.31
2022-10-02T12:55:54.555Z,100566.63
2022-10-02T12:58:35.312Z,100555.56
2022-10-02T13:01:52.935Z,100557.19
2022-10-02T13:04:19.443Z,100562.16
2022-10-02T13:06:57.771Z,100555.84
2022-10-02T13:09:36.277Z,100548.84
2022-10-02T13:12:44.289Z,100564.28
2022-10-02T13:15:34.193Z,100564.09
2022-10-02T13:18:13.467Z,100572.69
2022-10-02T13:21:06.156Z,100578.97
2022-10-02T13:24:19.232Z,100582.25
2022-10-02T13:26:54.316Z,100591.88
2022-10-02T13:29:59.178Z,100592.22
2022-10-02T13:32:31.643Z,100602.88
2022-10-02T13:35:19.828Z,100598.31
2022-10-02T13:37:58.283Z,100585.56
2022-10-02T13:40:37.290Z,100585.81
2022-10-02T13:43:26.310Z,100578.78
2022-10-02T13:46:20.209Z,100562.75
2022-10-02T13:49:00.130Z,100570.00
2022-10-02T13:51:52.749Z,100581.47
2022-10-02T13:54:29.475Z,100558.69
2022-10-02T13:57:20.426Z,100562.22
2022-10-02T13:59:58.935Z,100562.13
2022-10-02T14:03:08.405Z,100554.06
2022-10-02T14:05:43.942Z,100554.91
2022-10-02T14:08:37.040Z,100567.22
2022-10-02T14:11:26.174Z,100575.13
2022-10-02T14:14:08.901Z,100569.50
2022-10-02T14:16:45.935Z,100572.50
2022-10-02T14:19:24.443Z,100567.22
2022-10-02T14:22:34.915Z,100571.75
2022-10-02T14:25:22.772Z,100569.06
2022-10-02T14:28:08.245Z,100557.34
2022-10-02T14:30:57.046Z,100543.69
2022-10-02T14:33:52.228Z,100544.53
2022-10-02T14:36:33.560Z,100542.88
2022-10-02T14:39:30.905Z,100541.63
2022-10-02T14:42:09.998Z,100542.03
2022-10-02T14:44:56.870Z,100542.03
2022-10-02T14:47:26.420Z,100542.75
2022-10-02T14:50:14.611Z,100546.44
2022-10-02T14:53:19.362Z,100550.91
2022-10-02T14:56:10.267Z,100554.78
2022-10-02T14:58:55.404Z,100554.88
2022-10-02T15:01:23.705Z,100564.81
2022-10-02T15:04:12.540Z,100574.41
2022-10-02T15:07:13.701Z,100585.91
2022-10-02T15:09:55.153Z,100578.56
2022-10-02T15:12:25.934Z,100573.56
2022-10-02T15:15:09.070Z,100579.81
2022-10-02T15:17:55.150Z,100592.69
2022-10-02T15:20:40.555Z,100598.53
2022-10-02T15:23:38.952Z,100601.91
2022-10-02T15:26:16.404Z,100608.50
2022-10-02T15:29:04.126Z,100620.06
2022-10-02T15:31:44.187Z,100619.22
2022-10-02T15:34:24.830Z,100617.34
2022-10-02T15:37:13.456Z,100605.88
2022-10-02T15:39:42.792Z,100605.97
2022-10-02T15:42:11.088Z,100601.59
2022-10-02T15:45:03.531Z,100598.97
2022-10-02T15:47:48.873Z,100606.91
2022-10-02T15:50:30.622Z,100606.91
2022-10-02T15:53:18.294Z,100609.59
2022-10-02T15:55:52.591Z,100607.28
2022-10-02T15:58:56.338Z,100620.25
2022-10-02T16:01:31.794Z,100631.53
2022-10-02T16:04:21.843Z,100638.53
2022-10-02T16:07:13.101Z,100642.97
2022-10-02T16:10:07.872Z,100647.91
2022-10-02T16:12:40.864Z,100650.38
2022-10-02T16:15:23.384Z,100646.06
2022-10-02T16:17:59.586Z,100629.19
2022-10-02T16:20:40.078Z,100630.75
2022-10-02T16:23:11.554Z,100639.75
2022-10-02T16:25:40.751Z,100667.81
2022-10-02T16:28:13.211Z,100675.06
2022-10-02T16:30:51.666Z,100683.03
2022-10-02T16:33:44.277Z,100684.03
2022-10-02T16:36:29.929Z,100673.66
2022-10-02T16:39:35.012Z,100681.50
2022-10-02T16:42:10.955Z,100694.81
2022-10-02T16:44:58.645Z,100688.81
2022-10-02T16:47:49.918Z,100683.44
2022-10-02T16:50:24.341Z,100677.44
2022-10-02T16:53:05.094Z,100668.84
2022-10-02T16:55:39.960Z,100665.28
2022-10-02T16:58:24.601Z,100677.59
2022-10-02T17:01:05.191Z,100698.88
2022-10-02T17:03:36.688Z,100711.25
2022-10-02T17:06:28.430Z,100722.63
2022-10-02T17:09:05.715Z,100714.53
2022-10-02T17:11:43.333Z,100716.22
2022-10-02T17:14:14.642Z,100717.91
2022-10-02T17:17:31.986Z,100732.84
2022-10-02T17:20:01.217Z,100748.44
2022-10-02T17:22:41.201Z,100750.13
2022-10-02T17:25:27.019Z,100751.03
2022-10-02T17:28:04.069Z,100753.03
2022-10-02T17:30:52.569Z,100758.50
2022-10-02T17:33:26.967Z,100750.75
2022-10-02T17:36:06.112Z,100761.31
2022-10-02T17:39:04.258Z,100761.97
2022-10-02T17:41:57.528Z,100762.72
2022-10-02T17:44:59.062Z,100767.34
2022-10-02T17:47:34.328Z,100767.38
2022-10-02T17:50:29.794Z,100769.88
2022-10-02T17:53:32.485Z,100765.56
2022-10-02T17:56:28.589Z,100765.41
2022-10-02T17:59:07.101Z,100758.63
2022-10-02T18:01:46.704Z,100757.72
2022-10-02T18:04:31.319Z,100770.91
2022-10-02T18:07:06.868Z,100780.31
2022-10-02T18:09:51.422Z,100776.78
2022-10-02T18:12:43.153Z,100771.75
2022-10-02T18:15:40.427Z,100765.91
2022-10-02T18:18:21.223Z,100748.03
2022-10-02T18:20:57.359Z,100749.25
2022-10-02T18:24:07.641Z,100752.34
2022-10-02T18:26:53.274Z,100784.53
2022-10-02T18:29:34.891Z,100786.09
2022-10-02T18:32:22.548Z,100800.63
2022-10-02T18:35:09.109Z,100811.09
2022-10-02T18:37:47.731Z,100792.66
2022-10-02T18:40:22.943Z,100783.19
2022-10-02T18:43:23.216Z,100783.19
2022-10-02T18:46:11.392Z,100793.56
2022-10-02T18:48:58.721Z,100782.19
2022-10-02T18:51:38.748Z,100792.56
2022-10-02T18:54:30.023Z,100793.31
2022-10-02T18:57:02.485Z,100793.31
2022-10-02T18:59:47.738Z,100797.66
2022-10-02T19:02:40.006Z,100803.59
2022-10-02T19:05:33.437Z,100804.44
2022-10-02T19:08:06.062Z,100811.38
2022-10-02T19:10:32.442Z,100811.38
2022-10-02T19:13:21.940Z,100820.91
2022-10-02T19:15:52.600Z,100825.28
2022-10-02T19:18:21.170Z,100828.81
2022-10-02T19:20:54.613Z,100836.78
2022-10-02T19:23:41.495Z,100847.94
2022-10-02T19:26:17.150Z,100859.13
2022-10-02T19:28:48.338Z,100861.72
2022-10-02T19:31:22.810Z,100865.19
2022-10-02T19:33:54.388Z,100867.66
2022-10-02T19:36:24.216Z,100877.34
2022-10-02T19:38:58.832Z,100876.53
2022-10-02T19:41:26.179Z,100892.19
2022-10-02T19:44:28.800Z,100893.25
2022-10-02T19:46:58.681Z,100904.75
2022-10-02T19:49:30.245Z,100900.31
2022-10-02T19:51:57.668Z,100910.84
2022-10-02T19:54:30.594Z,100914.34
2022-10-02T19:57:04.407Z,100925.72
2022-10-02T19:59:41.743Z,100926.78
2022-10-02T20:02:21.894Z,100925.16
2022-10-02T20:04:50.587Z,100927.81
2022-10-02T20:07:20.375Z,100931.28
2022-10-02T20:09:55.513Z,100951.34
2022-10-02T20:12:27.229Z,100949.78
2022-10-02T20:15:10.293Z,100950.56
2022-10-02T20:17:37.596Z,100952.63
2022-10-02T20:20:12.007Z,100947.56
2022-10-02T20:22:45.584Z,100951.16
2022-10-02T20:25:44.876Z,100949.38
2022-10-02T20:28:17.573Z,100956.22
2022-10-02T20:31:06.135Z,100960.59
2022-10-02T20:33:40.389Z,100955.44
2022-10-02T20:36:14.353Z,100963.16
2022-10-02T20:38:57.532Z,100966.75
2022-10-02T20:41:29.862Z,100974.88
2022-10-02T20:44:02.375Z,100980.25
2022-10-02T20:46:47.605Z,100983.19
2022-10-02T20:49:52.767Z,100983.41
2022-10-02T20:52:40.374Z,100994.78
2022-10-02T20:55:26.517Z,100990.63
2022-10-02T20:58:02.160Z,101000.28
2022-10-02T21:00:47.509Z,101010.63
2022-10-02T21:03:30.890Z,101010.72
2022-10-02T21:06:07.278Z,101020.44
2022-10-02T21:09:00.320Z,101019.66
2022-10-02T21:11:45.477Z,101028.31
2022-10-02T21:14:53.189Z,101022.13
2022-10-02T21:17:38.655Z,101033.41
2022-10-02T21:20:07.768Z,101026.66
2022-10-02T21:23:11.832Z,101029.34
2022-10-02T21:25:59.567Z,101043.91
2022-10-02T21:28:51.078Z,101041.38
2022-10-02T21:31:31.339Z,101046.69
2022-10-02T21:34:18.557Z,101047.59
2022-10-02T21:36:58.692Z,101041.44
2022-10-02T21:40:03.057Z,101043.41
2022-10-02T21:43:02.815Z,101046.94
2022-10-02T21:45:34.949Z,101053.25
2022-10-02T21:48:20.227Z,101050.72
2022-10-02T21:51:38.184Z,101050.72
2022-10-02T21:54:25.672Z,101059.19
2022-10-02T21:57:16.236Z,101061.03
2022-10-02T22:00:07.741Z,101064.41
2022-10-02T22:02:53.884Z,101061.94
2022-10-02T22:05:42.516Z,101070.50
2022-10-02T22:08:09.228Z,101068.00
2022-10-02T22:10:56.664Z,101069.88
2022-10-02T22:13:29.440Z,101072.53
2022-10-02T22:16:28.449Z,101080.66
2022-10-02T22:19:02.860Z,101087.91
2022-10-02T22:21:42.533Z,101078.53
2022-10-02T22:24:32.755Z,101082.22
2022-10-02T22:27:02.069Z,101084.91
2022-10-02T22:29:58.910Z,101078.06
2022-10-02T22:32:53.366Z,101085.00
2022-10-02T22:36:00.726Z,101083.28
2022-10-02T22:38:35.084Z,101095.72
2022-10-02T22:41:08.402Z,101098.31
2022-10-02T22:43:46.845Z,101086.38
2022-10-02T22:46:44.249Z,101103.13
2022-10-02T22:49:44.668Z,101104.63
2022-10-02T22:52:24.249Z,101106.59
2022-10-02T22:54:59.849Z,101103.31
2022-10-02T22:57:41.502Z,101117.44
2022-10-02T23:00:33.917Z,101109.66
2022-10-02T23:03:15.317Z,101102.66
2022-10-02T23:05:51.878Z,101114.13
2022-10-02T23:08:32.025Z,101120.06
2022-10-02T23:11:08.094Z,101121.94
2022-10-02T23:13:44.875Z,101123.75
2022-10-02T23:16:42.690Z,101116.09
2022-10-02T23:19:15.542Z,101115.31
2022-10-02T23:21:47.797Z,101115.16
2022-10-02T23:24:38.529Z,101111.03
2022-10-02T23:27:11.915Z,101112.16
2022-10-02T23:29:45.386Z,101113.13
2022-10-02T23:32:24.310Z,101121.13
2022-10-02T23:34:59.769Z,101127.16
2022-10-02T23:37:37.699Z,101123.59
2022-10-02T23:40:16.286Z,101119.25
2022-10-02T23:43:03.057Z,101127.84
2022-10-02T23:45:42.642Z,101141.19
2022-10-02T23:48:14.183Z,101144.75
2022-10-02T23:51:02.574Z,101149.91
2022-10-02T23:53:40.170Z,101146.31
2022-10-02T23:56:25.746Z,101137.53
2022-10-02T23:59:19.899Z,101140.50
